Time;durP1;ratioP1;P1;durP2;ratioP2;P2;SDS_P1;SDS_P2;PMS_P1;PMS_P2;Temp;Humidity;BMP_temperature;BMP_pressure;BME280_temperature;BME280_humidity;BME280_pressure;Samples;Min_cycle;Max_cycle;Signal;HPM_P1;HPM_P2
2024/02/10 00:02:10;;;;;;;3.13;1.10;;;;;;;;;;5027002;28;60391;-74
2024/02/10 00:04:41;;;;;;;0.60;0.60;;;;;;;;;;5026964;28;59198;-73
2024/02/10 00:07:06;;;;;;;0.70;0.70;;;;;;;;;;5026226;28;58392;-73
2024/02/10 00:09:32;;;;;;;1.30;0.67;;;;;;;;;;5027568;28;58381;-73
2024/02/10 00:11:58;;;;;;;1.65;0.82;;;;;;;;;;5025366;28;59722;-73
2024/02/10 00:14:23;;;;;;;1.50;1.40;;;;;;;;;;5024118;28;59933;-74
2024/02/10 00:16:48;;;;;;;0.80;0.77;;;;;;;;;;5025524;28;59203;-73
2024/02/10 00:19:13;;;;;;;0.55;0.50;;;;;;;;;;5025603;28;58849;-72
2024/02/10 00:21:38;;;;;;;0.77;0.60;;;;;;;;;;5027733;28;58497;-74
2024/02/10 00:24:07;;;;;;;0.73;0.73;;;;;;;;;;5025503;28;58898;-74
2024/02/10 00:26:32;;;;;;;0.80;0.57;;;;;;;;;;5024329;28;58324;-73
2024/02/10 00:28:57;;;;;;;1.50;0.73;;;;;;;;;;5026735;28;60356;-74
2024/02/10 00:31:25;;;;;;;0.70;0.70;;;;;;;;;;5023709;28;58478;-73
2024/02/10 00:33:51;;;;;;;1.42;0.70;;;;;;;;;;5026567;28;58463;-73
2024/02/10 00:36:19;;;;;;;1.98;0.70;;;;;;;;;;5027008;28;59203;-73
2024/02/10 00:38:44;;;;;;;0.98;0.80;;;;;;;;;;5027564;28;58971;-73
2024/02/10 00:41:10;;;;;;;0.93;0.90;;;;;;;;;;5025390;28;58530;-74
2024/02/10 00:43:42;;;;;;;0.52;0.40;;;;;;;;;;5022748;28;59862;-73
2024/02/10 00:46:08;;;;;;;1.00;0.90;;;;;;;;;;5025045;28;58593;-73
2024/02/10 00:48:33;;;;;;;0.90;0.70;;;;;;;;;;5026049;28;59556;-74
2024/02/10 00:51:00;;;;;;;1.75;1.10;;;;;;;;;;5025079;28;60048;-73
2024/02/10 00:53:26;;;;;;;1.10;1.00;;;;;;;;;;5024899;28;58453;-74
2024/02/10 00:55:51;;;;;;;1.23;1.10;;;;;;;;;;5025562;28;58704;-73
2024/02/10 00:58:16;;;;;;;0.57;0.50;;;;;;;;;;5023574;28;59306;-73
2024/02/10 01:00:42;;;;;;;1.03;0.83;;;;;;;;;;5025932;28;58591;-73
2024/02/10 01:03:08;;;;;;;1.02;0.90;;;;;;;;;;5026708;28;59438;-73
2024/02/10 01:05:34;;;;;;;0.90;0.73;;;;;;;;;;5024342;28;58252;-73
2024/02/10 01:07:59;;;;;;;0.65;0.65;;;;;;;;;;5026083;28;59291;-74
2024/02/10 01:10:25;;;;;;;0.80;0.80;;;;;;;;;;5026495;28;59809;-73
2024/02/10 01:12:50;;;;;;;3.50;0.60;;;;;;;;;;5025003;28;58389;-74
2024/02/10 01:15:16;;;;;;;1.17;1.08;;;;;;;;;;5026016;28;58716;-73
2024/02/10 01:17:46;;;;;;;0.85;0.60;;;;;;;;;;5025929;28;58567;-74
2024/02/10 01:20:12;;;;;;;1.20;0.90;;;;;;;;;;5025894;28;58424;-73
2024/02/10 01:22:41;;;;;;;0.70;0.57;;;;;;;;;;5025923;28;59369;-73
2024/02/10 01:25:06;;;;;;;2.35;0.80;;;;;;;;;;5024569;28;59287;-73
2024/02/10 01:27:32;;;;;;;0.88;0.88;;;;;;;;;;5026619;28;59416;-73
2024/02/10 01:29:57;;;;;;;1.10;0.90;;;;;;;;;;5025649;28;58605;-73
2024/02/10 01:32:25;;;;;;;1.43;0.80;;;;;;;;;;5025186;28;58363;-73
2024/02/10 01:34:53;;;;;;;0.50;0.50;;;;;;;;;;5022301;28;60556;-74
2024/02/10 01:37:18;;;;;;;1.13;0.98;;;;;;;;;;5024419;28;58476;-70
2024/02/10 01:39:44;;;;;;;0.93;0.60;;;;;;;;;;5024322;28;58384;-70
2024/02/10 01:42:09;;;;;;;1.90;1.50;;;;;;;;;;5025358;28;59280;-70
2024/02/10 01:44:35;;;;;;;0.85;0.77;;;;;;;;;;5025866;28;58656;-70
2024/02/10 01:47:01;;;;;;;0.73;0.70;;;;;;;;;;5011331;28;58483;-70
2024/02/10 01:49:26;;;;;;;2.30;1.00;;;;;;;;;;5024314;28;59048;-73
2024/02/10 01:51:51;;;;;;;0.70;0.70;;;;;;;;;;5025406;28;58509;-73
2024/02/10 01:54:16;;;;;;;1.05;0.77;;;;;;;;;;5026208;28;59338;-74
2024/02/10 01:56:42;;;;;;;0.67;0.67;;;;;;;;;;5024179;28;58925;-73
2024/02/10 01:59:07;;;;;;;1.00;0.50;;;;;;;;;;5025422;28;58476;-73
2024/02/10 02:01:33;;;;;;;0.90;0.88;;;;;;;;;;5024419;28;59668;-73
2024/02/10 02:03:58;;;;;;;1.45;0.55;;;;;;;;;;5023902;28;59446;-72
2024/02/10 02:06:24;;;;;;;0.60;0.47;;;;;;;;;;5025606;28;58285;-73
2024/02/10 02:08:51;;;;;;;0.52;0.43;;;;;;;;;;5023769;28;59746;-74
2024/02/10 02:11:16;;;;;;;1.15;1.05;;;;;;;;;;5022656;28;58432;-72
2024/02/10 02:13:41;;;;;;;1.10;0.80;;;;;;;;;;5023445;28;59539;-74
2024/02/10 02:16:07;;;;;;;0.52;0.52;;;;;;;;;;5023705;28;58481;-74
2024/02/10 02:18:32;;;;;;;0.50;0.50;;;;;;;;;;5024984;28;58313;-73
2024/02/10 02:20:58;;;;;;;0.50;0.50;;;;;;;;;;5024746;28;60198;-73
2024/02/10 02:23:23;;;;;;;1.95;0.82;;;;;;;;;;5023452;28;59676;-74
2024/02/10 02:25:49;;;;;;;0.87;0.87;;;;;;;;;;5024686;28;57914;-73
2024/02/10 02:28:23;;;;;;;0.80;0.60;;;;;;;;;;5022954;28;59435;-73
2024/02/10 02:30:48;;;;;;;1.85;0.63;;;;;;;;;;5021834;28;58442;-73
2024/02/10 02:33:14;;;;;;;0.63;0.50;;;;;;;;;;5026649;28;59445;-72
2024/02/10 02:35:40;;;;;;;1.37;0.80;;;;;;;;;;5025028;28;58902;-73
2024/02/10 02:38:05;;;;;;;1.15;1.08;;;;;;;;;;5022521;28;58409;-73
2024/02/10 02:40:30;;;;;;;0.67;0.63;;;;;;;;;;5024460;28;59528;-74
2024/02/10 02:42:59;;;;;;;0.80;0.45;;;;;;;;;;5021593;28;59724;-74
2024/02/10 02:45:24;;;;;;;0.60;0.60;;;;;;;;;;5025059;28;58428;-73
2024/02/10 02:47:49;;;;;;;0.87;0.60;;;;;;;;;;5022455;28;59121;-70
2024/02/10 02:50:16;;;;;;;0.68;0.68;;;;;;;;;;5024105;28;58547;-70
2024/02/10 02:52:41;;;;;;;1.13;0.80;;;;;;;;;;5024123;28;59513;-70
2024/02/10 02:55:11;;;;;;;0.80;0.80;;;;;;;;;;5022369;28;59030;-70
2024/02/10 02:57:36;;;;;;;0.63;0.50;;;;;;;;;;5024124;28;58484;-73
2024/02/10 03:00:01;;;;;;;0.87;0.73;;;;;;;;;;5025343;28;58461;-73
2024/02/10 03:02:27;;;;;;;1.70;0.77;;;;;;;;;;5021728;28;60736;-73
2024/02/10 03:04:52;;;;;;;0.90;0.70;;;;;;;;;;5023090;28;58565;-73
2024/02/10 03:07:18;;;;;;;1.40;0.90;;;;;;;;;;5021968;28;58447;-73
2024/02/10 03:09:46;;;;;;;1.47;1.37;;;;;;;;;;5021031;28;58925;-73
2024/02/10 03:12:11;;;;;;;;;;;;;;;;;;5026135;28;58452;-73
2024/02/10 03:14:38;;;;;;;0.80;0.68;;;;;;;;;;5018952;28;58488;-74
2024/02/10 03:17:07;;;;;;;0.57;0.57;;;;;;;;;;5022568;28;58465;-73
2024/02/10 03:19:33;;;;;;;0.82;0.77;;;;;;;;;;5021356;28;58624;-73
2024/02/10 03:22:03;;;;;;;0.60;0.60;;;;;;;;;;5023075;28;59068;-73
2024/02/10 03:24:28;;;;;;;0.82;0.45;;;;;;;;;;5023856;28;58475;-73
2024/02/10 03:26:53;;;;;;;0.50;0.50;;;;;;;;;;5024457;28;59383;-73
2024/02/10 03:29:19;;;;;;;0.50;0.50;;;;;;;;;;5022063;28;58786;-73
2024/02/10 03:31:44;;;;;;;1.23;0.90;;;;;;;;;;5023941;28;58407;-73
2024/02/10 03:34:09;;;;;;;0.73;0.68;;;;;;;;;;5021860;28;59256;-74
2024/02/10 03:36:35;;;;;;;1.10;1.00;;;;;;;;;;5023356;28;58362;-73
2024/02/10 03:39:03;;;;;;;1.03;0.93;;;;;;;;;;5024617;28;59488;-73
2024/02/10 03:41:29;;;;;;;0.88;0.60;;;;;;;;;;5023682;28;59058;-73
2024/02/10 03:43:54;;;;;;;0.75;0.75;;;;;;;;;;5023534;28;58393;-73
2024/02/10 03:46:21;;;;;;;0.55;0.55;;;;;;;;;;5022114;28;59159;-73
2024/02/10 03:48:46;;;;;;;0.47;0.47;;;;;;;;;;5020870;28;60108;-73
2024/02/10 03:51:12;;;;;;;0.60;0.60;;;;;;;;;;5022681;28;58412;-73
2024/02/10 03:53:38;;;;;;;1.33;1.03;;;;;;;;;;5022898;28;59530;-74
2024/02/10 03:56:04;;;;;;;2.22;0.85;;;;;;;;;;5022221;28;58463;-72
2024/02/10 03:58:29;;;;;;;1.17;0.65;;;;;;;;;;5024269;28;60588;-70
2024/02/10 04:00:55;;;;;;;1.25;0.63;;;;;;;;;;5023293;28;59803;-70
2024/02/10 04:03:20;;;;;;;1.13;1.03;;;;;;;;;;5022773;28;58397;-70
2024/02/10 04:05:46;;;;;;;0.60;0.60;;;;;;;;;;5019743;28;60142;-70
2024/02/10 04:08:11;;;;;;;0.50;0.50;;;;;;;;;;5018572;28;58523;-70
2024/02/10 04:10:36;;;;;;;7.88;0.88;;;;;;;;;;5023192;28;58622;-70
2024/02/10 04:13:02;;;;;;;2.77;0.50;;;;;;;;;;5021281;28;59748;-70
2024/02/10 04:15:27;;;;;;;0.50;0.50;;;;;;;;;;5021660;28;58377;-70
2024/02/10 04:17:53;;;;;;;0.47;0.47;;;;;;;;;;5026763;28;58543;-70
2024/02/10 04:20:22;;;;;;;0.77;0.70;;;;;;;;;;5025103;28;58731;-70
2024/02/10 04:22:48;;;;;;;1.08;0.70;;;;;;;;;;5024744;28;58213;-71
2024/02/10 04:25:14;;;;;;;0.60;0.60;;;;;;;;;;5026323;28;59403;-70
2024/02/10 04:27:40;;;;;;;1.55;0.82;;;;;;;;;;5023948;28;59217;-70
2024/02/10 04:30:06;;;;;;;0.50;0.50;;;;;;;;;;5026285;28;58381;-70
2024/02/10 04:32:31;;;;;;;1.00;0.55;;;;;;;;;;5025418;28;59558;-70
2024/02/10 04:34:56;;;;;;;0.55;0.55;;;;;;;;;;5026733;28;59971;-70
2024/02/10 04:37:22;;;;;;;0.90;0.80;;;;;;;;;;5025453;28;58352;-70
2024/02/10 04:39:47;;;;;;;0.45;0.40;;;;;;;;;;5023508;28;58988;-70
2024/02/10 04:42:12;;;;;;;0.83;0.50;;;;;;;;;;5027091;28;58457;-70
2024/02/10 04:44:38;;;;;;;0.68;0.68;;;;;;;;;;5023769;28;58496;-70
2024/02/10 04:47:03;;;;;;;0.57;0.52;;;;;;;;;;5025776;28;59811;-70
2024/02/10 04:49:28;;;;;;;0.60;0.60;;;;;;;;;;5025229;28;58444;-70
2024/02/10 04:51:54;;;;;;;1.15;0.65;;;;;;;;;;5026322;28;60220;-70
2024/02/10 04:54:19;;;;;;;0.50;0.50;;;;;;;;;;5025135;28;59127;-71
2024/02/10 04:56:44;;;;;;;0.98;0.85;;;;;;;;;;5027415;28;58451;-70
2024/02/10 04:59:18;;;;;;;1.02;0.98;;;;;;;;;;5027001;28;59196;-70
2024/02/10 05:01:43;;;;;;;0.88;0.60;;;;;;;;;;5025417;28;58440;-70
2024/02/10 05:04:11;;;;;;;0.60;0.60;;;;;;;;;;5026657;28;58433;-70
2024/02/10 05:06:37;;;;;;;0.68;0.63;;;;;;;;;;5023736;28;59110;-70
2024/02/10 05:09:02;;;;;;;0.70;0.70;;;;;;;;;;5025686;28;58592;-73
2024/02/10 05:11:28;;;;;;;0.30;0.30;;;;;;;;;;5023587;28;58607;-73
2024/02/10 05:13:54;;;;;;;0.70;0.45;;;;;;;;;;5025422;28;59033;-74
2024/02/10 05:16:21;;;;;;;2.83;0.90;;;;;;;;;;5023422;28;57995;-73
2024/02/10 05:18:46;;;;;;;1.00;0.65;;;;;;;;;;5027543;28;59707;-70
2024/02/10 05:21:16;;;;;;;0.43;0.40;;;;;;;;;;5027747;28;58606;-70
2024/02/10 05:23:41;;;;;;;0.50;0.50;;;;;;;;;;5024959;28;60490;-70
2024/02/10 05:26:06;;;;;;;0.93;0.82;;;;;;;;;;5024558;28;59106;-70
2024/02/10 05:28:32;;;;;;;0.50;0.50;;;;;;;;;;5024593;28;58482;-70
2024/02/10 05:30:57;;;;;;;0.45;0.45;;;;;;;;;;5024559;28;60152;-70
2024/02/10 05:33:27;;;;;;;0.73;0.73;;;;;;;;;;5024960;28;58999;-70
2024/02/10 05:35:52;;;;;;;0.60;0.60;;;;;;;;;;5024564;28;58395;-70
2024/02/10 05:38:17;;;;;;;1.20;0.60;;;;;;;;;;5022830;28;59422;-70
2024/02/10 05:40:42;;;;;;;0.52;0.52;;;;;;;;;;5024386;28;58536;-70
2024/02/10 05:43:08;;;;;;;0.68;0.50;;;;;;;;;;5025010;28;58751;-69
2024/02/10 05:45:34;;;;;;;0.60;0.57;;;;;;;;;;5022192;28;59400;-71
2024/02/10 05:47:59;;;;;;;0.67;0.50;;;;;;;;;;5026308;28;58685;-70
2024/02/10 05:50:24;;;;;;;1.07;0.80;;;;;;;;;;5024783;28;59161;-70
2024/02/10 05:52:50;;;;;;;1.17;1.08;;;;;;;;;;5023097;28;60066;-70
2024/02/10 05:55:26;;;;;;;0.40;0.40;;;;;;;;;;5024551;28;58419;-70
2024/02/10 05:57:55;;;;;;;1.58;0.60;;;;;;;;;;5024694;28;59298;-70
2024/02/10 06:00:20;;;;;;;0.77;0.65;;;;;;;;;;5024942;28;58894;-70
2024/02/10 06:02:47;;;;;;;0.60;0.60;;;;;;;;;;5024407;28;58344;-70
2024/02/10 06:05:13;;;;;;;0.50;0.50;;;;;;;;;;5022613;28;59567;-70
2024/02/10 06:07:38;;;;;;;0.45;0.45;;;;;;;;;;5025897;28;58359;-70
2024/02/10 06:10:09;;;;;;;0.70;0.70;;;;;;;;;;5027044;28;60180;-70
2024/02/10 06:12:35;;;;;;;0.75;0.55;;;;;;;;;;5024099;28;59057;-70
2024/02/10 06:15:00;;;;;;;0.50;0.50;;;;;;;;;;5022983;28;58492;-70
2024/02/10 06:17:25;;;;;;;0.40;0.40;;;;;;;;;;5024540;28;59223;-70
2024/02/10 06:19:50;;;;;;;0.50;0.50;;;;;;;;;;5021223;28;58415;-70
2024/02/10 06:22:18;;;;;;;0.50;0.50;;;;;;;;;;5021481;28;58504;-70
2024/02/10 06:24:44;;;;;;;0.73;0.70;;;;;;;;;;5023092;28;59547;-70
2024/02/10 06:27:09;;;;;;;1.40;1.25;;;;;;;;;;5024182;28;58936;-73
2024/02/10 06:29:34;;;;;;;2.03;0.75;;;;;;;;;;5017729;28;59480;-73
2024/02/10 06:32:01;;;;;;;0.67;0.60;;;;;;;;;;5022629;28;59023;-74
2024/02/10 06:34:27;;;;;;;1.85;0.70;;;;;;;;;;5022800;28;58559;-74
2024/02/10 06:36:54;;;;;;;1.23;0.98;;;;;;;;;;5021508;28;59255;-74
2024/02/10 06:39:19;;;;;;;0.70;0.70;;;;;;;;;;5005375;28;60512;-73
2024/02/10 06:41:45;;;;;;;0.85;0.70;;;;;;;;;;5023062;28;58499;-74
2024/02/10 06:44:10;;;;;;;1.95;1.60;;;;;;;;;;5022918;28;60301;-74
2024/02/10 06:46:35;;;;;;;3.55;1.75;;;;;;;;;;5022084;28;59167;-74
2024/02/10 06:49:00;;;;;;;2.90;0.93;;;;;;;;;;5025114;28;58511;-74
2024/02/10 06:51:26;;;;;;;0.80;0.80;;;;;;;;;;5023887;28;58857;-73
2024/02/10 06:53:51;;;;;;;3.20;1.30;;;;;;;;;;5024097;28;58508;-73
2024/02/10 06:56:18;;;;;;;1.92;1.10;;;;;;;;;;5025785;28;59659;-73
2024/02/10 06:58:43;;;;;;;0.95;0.77;;;;;;;;;;5023303;28;58521;-73
2024/02/10 07:01:09;;;;;;;1.87;1.60;;;;;;;;;;5023230;28;58985;-72
2024/02/10 07:03:35;;;;;;;1.40;0.80;;;;;;;;;;5024315;28;59367;-73
2024/02/10 07:06:02;;;;;;;1.23;0.85;;;;;;;;;;5023431;28;59188;-74
2024/02/10 07:08:29;;;;;;;2.03;0.85;;;;;;;;;;5023713;28;58488;-73
2024/02/10 07:10:54;;;;;;;2.67;1.42;;;;;;;;;;5023200;28;59810;-73
2024/02/10 07:13:19;;;;;;;3.90;1.00;;;;;;;;;;5022103;28;58376;-74
2024/02/10 07:15:44;;;;;;;1.65;1.27;;;;;;;;;;5005407;28;60664;-74
2024/02/10 07:18:09;;;;;;;2.55;1.33;;;;;;;;;;5023766;28;58589;-74
2024/02/10 07:20:34;;;;;;;4.17;1.60;;;;;;;;;;5021885;28;58779;-74
2024/02/10 07:23:02;;;;;;;5.95;1.35;;;;;;;;;;5024208;28;58409;-74
2024/02/10 07:25:28;;;;;;;2.85;0.93;;;;;;;;;;5021129;28;58896;-73
2024/02/10 07:27:53;;;;;;;2.42;1.48;;;;;;;;;;5021081;28;58476;-70
2024/02/10 07:30:19;;;;;;;2.08;0.80;;;;;;;;;;5023420;28;59852;-71
2024/02/10 07:32:45;;;;;;;2.92;1.30;;;;;;;;;;5023325;28;58404;-71
2024/02/10 07:35:12;;;;;;;1.38;1.10;;;;;;;;;;5021731;28;59270;-70
2024/02/10 07:37:38;;;;;;;2.78;1.98;;;;;;;;;;5022647;28;59070;-73
2024/02/10 07:40:04;;;;;;;2.97;1.60;;;;;;;;;;5021204;28;58483;-73
2024/02/10 07:42:29;;;;;;;3.15;1.10;;;;;;;;;;5021543;28;59503;-73
2024/02/10 07:44:55;;;;;;;3.90;1.40;;;;;;;;;;5022084;28;58963;-74
2024/02/10 07:47:23;;;;;;;2.28;1.95;;;;;;;;;;5024843;28;58077;-73
2024/02/10 07:49:50;;;;;;;3.35;1.17;;;;;;;;;;5021885;28;61247;-73
2024/02/10 07:52:17;;;;;;;1.30;1.05;;;;;;;;;;5028171;28;59254;-74
2024/02/10 07:54:46;;;;;;;4.70;1.10;;;;;;;;;;5026595;28;59589;-73
2024/02/10 07:57:19;;;;;;;2.15;1.13;;;;;;;;;;5026629;28;59108;-73
2024/02/10 07:59:45;;;;;;;1.63;1.13;;;;;;;;;;5025445;28;58399;-74
2024/02/10 08:02:13;;;;;;;3.08;1.55;;;;;;;;;;5026165;28;58801;-74
2024/02/10 08:04:40;;;;;;;5.28;1.38;;;;;;;;;;5024471;28;59409;-74
2024/02/10 08:07:07;;;;;;;3.78;1.20;;;;;;;;;;5024770;28;58463;-74
2024/02/10 08:09:32;;;;;;;2.53;1.52;;;;;;;;;;5025891;28;58768;-73
2024/02/10 08:11:57;;;;;;;2.00;1.15;;;;;;;;;;5025360;28;58848;-73
2024/02/10 08:14:22;;;;;;;5.57;1.50;;;;;;;;;;5024706;28;58532;-74
2024/02/10 08:16:49;;;;;;;3.50;1.58;;;;;;;;;;5024283;28;58777;-73
2024/02/10 08:19:18;;;;;;;7.17;1.60;;;;;;;;;;5027247;28;57890;-74
2024/02/10 08:21:43;;;;;;;;;;;;;;;;;;5025555;28;60325;-73
2024/02/10 08:24:10;;;;;;;4.80;1.83;;;;;;;;;;5024509;28;58295;-73
2024/02/10 08:26:37;;;;;;;4.57;1.60;;;;;;;;;;5022891;28;58444;-73
2024/02/10 08:29:02;;;;;;;6.47;2.53;;;;;;;;;;5023845;28;58883;-74
2024/02/10 08:31:30;;;;;;;3.47;1.50;;;;;;;;;;5021420;28;58861;-73
2024/02/10 08:33:58;;;;;;;2.88;1.42;;;;;;;;;;5023650;28;58471;-73
2024/02/10 08:36:24;;;;;;;6.28;2.38;;;;;;;;;;5023133;28;59775;-74
2024/02/10 08:38:49;;;;;;;4.13;2.22;;;;;;;;;;5025955;28;58244;-70
2024/02/10 08:41:16;;;;;;;5.13;1.77;;;;;;;;;;5023741;28;58569;-71
2024/02/10 08:43:47;;;;;;;4.15;2.05;;;;;;;;;;5022326;28;58474;-70
2024/02/10 08:46:14;;;;;;;4.18;1.60;;;;;;;;;;5023864;28;58506;-70
2024/02/10 08:48:40;;;;;;;4.18;1.92;;;;;;;;;;5021630;28;58465;-71
2024/02/10 08:51:05;;;;;;;2.42;2.03;;;;;;;;;;5024036;28;59050;-70
2024/02/10 08:53:32;;;;;;;4.20;1.63;;;;;;;;;;5023503;28;58529;-70
2024/02/10 08:55:57;;;;;;;4.85;1.88;;;;;;;;;;5023386;28;60216;-70
2024/02/10 08:58:23;;;;;;;2.07;1.27;;;;;;;;;;5024065;28;58531;-70
2024/02/10 09:00:48;;;;;;;3.88;1.63;;;;;;;;;;5021106;28;58630;-70
2024/02/10 09:03:13;;;;;;;5.70;2.23;;;;;;;;;;5022861;28;58602;-71
2024/02/10 09:05:39;;;;;;;4.68;2.58;;;;;;;;;;5022711;28;58675;-70
2024/02/10 09:08:04;;;;;;;4.37;2.03;;;;;;;;;;5023502;28;58724;-71
2024/02/10 09:10:29;;;;;;;3.63;1.70;;;;;;;;;;5022139;28;59787;-70
2024/02/10 09:12:56;;;;;;;6.00;1.70;;;;;;;;;;5024432;28;58304;-70
2024/02/10 09:15:21;;;;;;;5.18;1.50;;;;;;;;;;5023781;28;59447;-70
2024/02/10 09:17:48;;;;;;;6.60;1.95;;;;;;;;;;5021817;28;58438;-71
2024/02/10 09:20:14;;;;;;;7.18;2.78;;;;;;;;;;5025941;28;59816;-70
2024/02/10 09:22:39;;;;;;;5.00;2.17;;;;;;;;;;5024852;28;59051;-70
2024/02/10 09:25:04;;;;;;;7.47;2.85;;;;;;;;;;5026418;28;58284;-70
2024/02/10 09:27:29;;;;;;;2.45;1.77;;;;;;;;;;5010583;28;61066;-70
2024/02/10 09:29:55;;;;;;;8.37;2.13;;;;;;;;;;5025841;28;58568;-71
2024/02/10 09:32:20;;;;;;;4.80;2.23;;;;;;;;;;5025866;28;58470;-71
2024/02/10 09:34:46;;;;;;;8.30;2.53;;;;;;;;;;5025217;28;59516;-70
2024/02/10 09:37:11;;;;;;;4.20;1.85;;;;;;;;;;5026540;28;59825;-70
2024/02/10 09:39:37;;;;;;;5.15;2.22;;;;;;;;;;5026933;28;58460;-70
2024/02/10 09:42:03;;;;;;;5.60;2.50;;;;;;;;;;5025758;28;58948;-70
2024/02/10 09:44:29;;;;;;;6.57;2.28;;;;;;;;;;5026369;28;58398;-70
2024/02/10 09:46:57;;;;;;;3.27;1.53;;;;;;;;;;5026163;28;58607;-70
2024/02/10 09:49:23;;;;;;;7.35;2.42;;;;;;;;;;5025462;28;59139;-74
2024/02/10 09:51:48;;;;;;;3.55;2.08;;;;;;;;;;5026809;28;58525;-73
2024/02/10 09:54:14;;;;;;;4.40;2.17;;;;;;;;;;5026741;28;58681;-73
2024/02/10 09:56:39;;;;;;;4.47;2.30;;;;;;;;;;5025519;28;58484;-73
2024/02/10 09:59:10;;;;;;;6.97;2.70;;;;;;;;;;5023533;28;58563;-73
2024/02/10 10:01:37;;;;;;;7.18;2.78;;;;;;;;;;5022833;28;59655;-73
2024/02/10 10:04:02;;;;;;;4.05;2.22;;;;;;;;;;5020715;28;58581;-72
2024/02/10 10:06:28;;;;;;;7.60;3.50;;;;;;;;;;5024554;28;59295;-74
2024/02/10 10:08:53;;;;;;;6.85;3.13;;;;;;;;;;5020247;28;58502;-72
2024/02/10 10:11:20;;;;;;;4.65;2.70;;;;;;;;;;5021666;28;58517;-73
2024/02/10 10:13:46;;;;;;;5.47;3.25;;;;;;;;;;5023804;28;58568;-74
2024/02/10 10:16:11;;;;;;;5.70;3.55;;;;;;;;;;5022339;28;60027;-74
2024/02/10 10:18:36;;;;;;;5.23;3.30;;;;;;;;;;5024088;28;58357;-74
2024/02/10 10:21:04;;;;;;;6.67;3.70;;;;;;;;;;5025173;28;60279;-74
2024/02/10 10:23:31;;;;;;;;;;;;;;;;;;5024554;28;59015;-74
2024/02/10 10:25:56;;;;;;;6.47;2.80;;;;;;;;;;5022313;28;60311;-73
2024/02/10 10:28:21;;;;;;;4.10;2.72;;;;;;;;;;5022837;28;58577;-73
2024/02/10 10:30:47;;;;;;;2.90;2.33;;;;;;;;;;5019121;28;58278;-73
2024/02/10 10:33:12;;;;;;;7.53;3.30;;;;;;;;;;5022165;28;58486;-73
2024/02/10 10:35:38;;;;;;;8.93;2.97;;;;;;;;;;5019369;28;58618;-73
2024/02/10 10:38:05;;;;;;;3.83;2.28;;;;;;;;;;5020141;28;58526;-73
2024/02/10 10:40:31;;;;;;;6.90;2.75;;;;;;;;;;5024593;28;59085;-74
2024/02/10 10:43:00;;;;;;;10.68;2.55;;;;;;;;;;5022990;28;60115;-74
2024/02/10 10:45:25;;;;;;;8.07;3.10;;;;;;;;;;5024095;28;58424;-74
2024/02/10 10:47:50;;;;;;;5.27;2.30;;;;;;;;;;5024394;28;58439;-74
2024/02/10 10:50:16;;;;;;;3.25;2.50;;;;;;;;;;5022751;28;58432;-74
2024/02/10 10:52:43;;;;;;;7.10;2.67;;;;;;;;;;5022029;28;60158;-74
2024/02/10 10:55:09;;;;;;;5.87;3.43;;;;;;;;;;5021117;28;58776;-73
2024/02/10 10:57:36;;;;;;;6.65;3.17;;;;;;;;;;5022205;28;58326;-74
2024/02/10 11:00:24;;;;;;;4.60;2.72;;;;;;;;;;5021314;28;59306;-73
2024/02/10 11:02:53;;;;;;;6.00;3.10;;;;;;;;;;5022893;28;59932;-74
2024/02/10 11:05:19;;;;;;;10.90;4.15;;;;;;;;;;5020806;28;58340;-73
2024/02/10 11:07:48;;;;;;;11.25;4.00;;;;;;;;;;5024244;28;58858;-73
2024/02/10 11:10:18;;;;;;;9.15;4.85;;;;;;;;;;5023862;28;58714;-73
2024/02/10 11:12:43;;;;;;;15.93;6.97;;;;;;;;;;5022426;28;58434;-73
2024/02/10 11:15:18;;;;;;;13.60;6.53;;;;;;;;;;5020798;28;59029;-73
2024/02/10 11:17:43;;;;;;;23.45;10.13;;;;;;;;;;5023628;28;58352;-73
2024/02/10 11:20:11;;;;;;;21.13;10.37;;;;;;;;;;5022041;28;59481;-73
2024/02/10 11:22:43;;;;;;;27.63;11.07;;;;;;;;;;5023425;28;58649;-74
2024/02/10 11:25:11;;;;;;;30.27;11.50;;;;;;;;;;5022657;28;58433;-74
2024/02/10 11:27:40;;;;;;;32.15;13.18;;;;;;;;;;5026479;28;59344;-73
2024/02/10 11:30:06;;;;;;;34.95;13.00;;;;;;;;;;5025470;28;58544;-73
2024/02/10 11:32:34;;;;;;;34.30;13.50;;;;;;;;;;5026196;28;60557;-73
2024/02/10 11:35:00;;;;;;;34.00;13.07;;;;;;;;;;5025771;28;59094;-73
2024/02/10 11:37:29;;;;;;;30.38;13.48;;;;;;;;;;5026469;28;58456;-72
2024/02/10 11:39:55;;;;;;;41.10;15.80;;;;;;;;;;5025976;28;58648;-72
2024/02/10 11:42:20;;;;;;;37.05;13.38;;;;;;;;;;5024367;28;58599;-72
2024/02/10 11:44:46;;;;;;;30.13;13.40;;;;;;;;;;5028115;28;58427;-72
2024/02/10 11:47:12;;;;;;;30.73;13.70;;;;;;;;;;5025127;28;60304;-72
2024/02/10 11:49:40;;;;;;;41.28;15.50;;;;;;;;;;5027857;28;60289;-71
2024/02/10 11:52:07;;;;;;;;;;;;;;;;;;5025527;28;59736;-73
2024/02/10 11:54:33;;;;;;;35.23;14.93;;;;;;;;;;5025158;28;58669;-73
2024/02/10 11:57:00;;;;;;;39.33;15.38;;;;;;;;;;5025652;28;58388;-73
2024/02/10 11:59:27;;;;;;;38.80;15.75;;;;;;;;;;5027067;28;60428;-72
2024/02/10 12:01:53;;;;;;;37.88;14.57;;;;;;;;;;5026219;28;59011;-73
2024/02/10 12:04:18;;;;;;;35.60;15.43;;;;;;;;;;5024402;28;58590;-72
2024/02/10 12:06:46;;;;;;;33.28;15.93;;;;;;;;;;5030609;28;60073;-74
2024/02/10 12:09:11;;;;;;;42.90;17.58;;;;;;;;;;5027672;28;59935;-74
2024/02/10 12:11:37;;;;;;;41.10;18.35;;;;;;;;;;5024828;28;58364;-74
2024/02/10 12:14:02;;;;;;;43.35;18.00;;;;;;;;;;5021717;28;58455;-74
2024/02/10 12:16:29;;;;;;;36.65;15.77;;;;;;;;;;5024359;28;58471;-75
2024/02/10 12:18:55;;;;;;;39.35;17.00;;;;;;;;;;5027367;28;60324;-71
2024/02/10 12:21:24;;;;;;;34.80;16.00;;;;;;;;;;5024698;28;58361;-71
2024/02/10 12:23:50;;;;;;;48.92;19.50;;;;;;;;;;5027156;28;58515;-71
2024/02/10 12:26:15;;;;;;;40.10;15.68;;;;;;;;;;5026698;28;59807;-71
2024/02/10 12:28:41;;;;;;;42.97;18.50;;;;;;;;;;5025028;28;59119;-71
2024/02/10 12:31:06;;;;;;;45.40;16.67;;;;;;;;;;5025371;28;58235;-72
2024/02/10 12:33:31;;;;;;;46.65;19.10;;;;;;;;;;5026400;28;59227;-71
2024/02/10 12:35:58;;;;;;;39.67;17.10;;;;;;;;;;5025929;28;58495;-72
2024/02/10 12:38:26;;;;;;;40.47;19.05;;;;;;;;;;5025829;28;59387;-71
2024/02/10 12:40:51;;;;;;;;;;;;;;;;;;5026147;28;58953;-71
2024/02/10 12:43:16;;;;;;;36.50;17.52;;;;;;;;;;5026392;28;58481;-71
2024/02/10 12:45:46;;;;;;;39.67;17.43;;;;;;;;;;5026249;28;58807;-71
2024/02/10 12:48:11;;;;;;;41.65;17.58;;;;;;;;;;5024556;28;59014;-72
2024/02/10 12:50:36;;;;;;;34.20;16.48;;;;;;;;;;5025663;28;58383;-72
2024/02/10 12:53:01;;;;;;;40.55;17.92;;;;;;;;;;5025841;28;60419;-71
2024/02/10 12:55:27;;;;;;;41.07;17.70;;;;;;;;;;5025750;28;58394;-72
2024/02/10 12:57:53;;;;;;;36.78;16.20;;;;;;;;;;5025372;28;59538;-71
2024/02/10 13:00:24;;;;;;;35.77;16.63;;;;;;;;;;5025803;28;58834;-71
2024/02/10 13:02:49;;;;;;;38.80;16.30;;;;;;;;;;5026299;28;58661;-71
2024/02/10 13:05:15;;;;;;;47.08;17.45;;;;;;;;;;5024375;28;60054;-71
2024/02/10 13:07:41;;;;;;;34.28;15.60;;;;;;;;;;5025515;28;58986;-71
2024/02/10 13:10:18;;;;;;;32.13;15.38;;;;;;;;;;5024555;28;58503;-71
2024/02/10 13:12:43;;;;;;;33.47;15.77;;;;;;;;;;5027279;28;59550;-72
2024/02/10 13:15:09;;;;;;;31.73;14.87;;;;;;;;;;5027209;28;58761;-71
2024/02/10 13:17:35;;;;;;;35.30;15.27;;;;;;;;;;5024628;28;59297;-74
2024/02/10 13:20:01;;;;;;;43.20;15.88;;;;;;;;;;5023413;28;58841;-73
2024/02/10 13:22:26;;;;;;;38.50;16.58;;;;;;;;;;5024470;28;58388;-73
2024/02/10 13:24:51;;;;;;;28.65;14.77;;;;;;;;;;5027388;28;59201;-73
2024/02/10 13:27:16;;;;;;;30.30;14.65;;;;;;;;;;5025456;28;58798;-74
2024/02/10 13:29:41;;;;;;;27.00;14.30;;;;;;;;;;5001978;28;58486;-76
2024/02/10 13:32:06;;;;;;;37.53;15.13;;;;;;;;;;5027765;28;58845;-75
2024/02/10 13:34:31;;;;;;;29.37;13.60;;;;;;;;;;5022794;28;58349;-75
2024/02/10 14:00:54;;;;;;;37.58;14.27;;;;;;;;;;5023181;28;59331;-73
2024/02/10 14:03:19;;;;;;;28.03;14.90;;;;;;;;;;5024277;28;58479;-73
2024/02/10 14:10:46;;;;;;;27.77;11.60;;;;;;;;;;5024738;28;58389;-73
2024/02/10 14:13:17;;;;;;;27.35;13.10;;;;;;;;;;5023573;28;59337;-73
2024/02/10 14:15:52;;;;;;;31.17;12.73;;;;;;;;;;5022080;28;59100;-73
2024/02/10 14:18:24;;;;;;;27.08;12.70;;;;;;;;;;5022217;28;58430;-73
2024/02/10 14:20:49;;;;;;;28.13;13.65;;;;;;;;;;5022928;28;60357;-73
2024/02/10 14:23:16;;;;;;;26.92;12.75;;;;;;;;;;5023037;28;59521;-73
2024/02/10 14:25:41;;;;;;;22.73;12.30;;;;;;;;;;5022628;28;59616;-73
2024/02/10 14:28:23;;;;;;;37.08;13.27;;;;;;;;;;5022745;28;59653;-73
2024/02/10 14:30:49;;;;;;;25.90;13.43;;;;;;;;;;5021340;28;58564;-74
2024/02/10 14:33:18;;;;;;;24.33;13.13;;;;;;;;;;5024520;28;60294;-74
2024/02/10 14:35:54;;;;;;;29.45;13.50;;;;;;;;;;5022001;28;59065;-74
2024/02/10 14:38:31;;;;;;;30.42;14.07;;;;;;;;;;5022655;28;58569;-71
2024/02/10 14:41:03;;;;;;;27.75;12.70;;;;;;;;;;5022749;28;60437;-71
2024/02/10 14:43:29;;;;;;;29.42;14.50;;;;;;;;;;5022258;28;59132;-71
2024/02/10 14:45:57;;;;;;;27.73;13.52;;;;;;;;;;5023741;28;58411;-71
2024/02/10 14:48:22;;;;;;;28.90;13.13;;;;;;;;;;5023228;28;59051;-72
2024/02/10 14:50:47;;;;;;;31.87;13.60;;;;;;;;;;5021501;28;58501;-72
2024/02/10 14:53:12;;;;;;;29.67;12.43;;;;;;;;;;5021011;28;59338;-75
2024/02/10 14:55:38;;;;;;;28.73;14.33;;;;;;;;;;5018851;28;58700;-76
2024/02/10 14:58:07;;;;;;;33.83;13.00;;;;;;;;;;5023941;28;58564;-75
2024/02/10 15:00:33;;;;;;;35.80;14.38;;;;;;;;;;5023826;28;59325;-75
2024/02/10 15:02:59;;;;;;;30.85;14.55;;;;;;;;;;5022675;28;63598;-75